GVAC/SID METAR and TAF weather

Enter ICAO airport designator
Station Type Date Time Source
GVAC METAR 2019/12/14 11:00 UTC NOAA

GVAC 141100Z 06015KT 8000 NSC 24/17 Q1016 NOSIG


Station Type Date Time Source
GVAC Decoded METAR 2019/12/14 11:00 UTC NOAA

Sal, Cape Verde (GVAC) 16-44N 022-57W 55M
Dec 14, 2019 - 06:00 AM EST / 2019.12.14 1100 UTC
Wind: from the ENE (060 degrees) at 17 MPH (15 KT):0
Visibility: 4 mile(s):0
Temperature: 75 F (24 C)
Dew Point: 62 F (17 C)
Relative Humidity: 64%
Pressure (altimeter): 30.00 in. Hg (1016 hPa)
ob: GVAC 141100Z 06015KT 8000 NSC 24/17 Q1016 NOSIG
cycle: 11

Station Type Date Time Source
GVAC TAF 2019/12/14 12:57 UTC NOAA

TAF GVAC 141100Z 1412/1518 06016KT 8000 NSC
TEMPO 1423/1408 06006KT
BECMG 1500/1502 CAVOK

Example: see airport list